createdAt,value
2017-11-28T00:01:07.112Z,-2.08
2017-11-28T00:03:34.867Z,-2.08
2017-11-28T00:06:02.736Z,-2.03
2017-11-28T00:08:30.489Z,-2.00
2017-11-28T00:10:58.265Z,-1.92
2017-11-28T00:13:26.090Z,-1.85
2017-11-28T00:15:53.853Z,-1.79
2017-11-28T00:18:21.729Z,-1.76
2017-11-28T00:20:49.483Z,-1.71
2017-11-28T00:23:17.271Z,-1.67
2017-11-28T00:25:45.113Z,-1.67
2017-11-28T00:28:12.910Z,-1.71
2017-11-28T00:30:40.663Z,-1.70
2017-11-28T00:33:08.431Z,-1.82
2017-11-28T00:35:36.159Z,-1.94
2017-11-28T00:38:03.872Z,-1.94
2017-11-28T00:40:31.689Z,-1.85
2017-11-28T00:42:59.406Z,-1.77
2017-11-28T00:45:27.199Z,-1.74
2017-11-28T00:47:55.004Z,-1.70
2017-11-28T00:50:22.707Z,-1.69
2017-11-28T00:52:50.470Z,-1.67
2017-11-28T00:55:18.211Z,-1.65
2017-11-28T00:57:46.014Z,-1.64
2017-11-28T01:00:13.729Z,-1.59
2017-11-28T01:02:41.499Z,-1.58
2017-11-28T01:05:09.378Z,-1.57
2017-11-28T01:07:37.153Z,-1.59
2017-11-28T01:10:04.941Z,-1.57
2017-11-28T01:12:32.769Z,-1.53
2017-11-28T01:15:00.550Z,-1.58
2017-11-28T01:17:28.333Z,-1.53
2017-11-28T01:19:56.079Z,-1.53
2017-11-28T01:22:23.980Z,-1.53
2017-11-28T01:24:51.716Z,-1.52
2017-11-28T01:27:19.440Z,-1.62
2017-11-28T01:29:47.228Z,-1.61
2017-11-28T01:32:15.008Z,-1.61
2017-11-28T01:34:42.815Z,-1.62
2017-11-28T01:37:10.550Z,-1.71
2017-11-28T01:39:38.454Z,-1.72
2017-11-28T01:42:06.170Z,-1.75
2017-11-28T01:44:33.885Z,-1.71
2017-11-28T01:47:01.693Z,-1.67
2017-11-28T01:49:29.465Z,-1.67
2017-11-28T01:51:57.272Z,-1.61
2017-11-28T01:54:25.139Z,-1.57
2017-11-28T01:56:52.982Z,-1.53
2017-11-28T01:59:20.730Z,-1.53
2017-11-28T02:01:48.559Z,-1.52
2017-11-28T02:04:16.400Z,-1.52
2017-11-28T02:06:44.174Z,-1.46
2017-11-28T02:09:12.009Z,-1.49
2017-11-28T02:11:39.818Z,-1.47
2017-11-28T02:14:07.606Z,-1.44
2017-11-28T02:16:35.448Z,-1.41
2017-11-28T02:19:03.283Z,-1.49
2017-11-28T02:21:31.121Z,-1.53
2017-11-28T02:23:58.953Z,-1.51
2017-11-28T02:26:26.776Z,-1.46
2017-11-28T02:28:54.577Z,-1.49
2017-11-28T02:31:22.427Z,-1.48
2017-11-28T02:33:50.276Z,-1.44
2017-11-28T02:36:18.085Z,-1.57
2017-11-28T02:38:45.926Z,-1.66
2017-11-28T02:41:22.367Z,-1.71
2017-11-28T02:43:50.910Z,-1.55
2017-11-28T02:46:19.628Z,-1.47
2017-11-28T02:48:59.219Z,-1.49
2017-11-28T02:51:27.194Z,-1.48
2017-11-28T02:53:55.018Z,-1.38
2017-11-28T02:56:23.478Z,-1.34
2017-11-28T02:59:06.163Z,-1.35
2017-11-28T03:01:41.251Z,-1.36
2017-11-28T03:04:09.124Z,-1.38
2017-11-28T03:06:36.965Z,-1.37
2017-11-28T03:09:05.733Z,-1.39
2017-11-28T03:11:33.573Z,-1.42
2017-11-28T03:16:58.441Z,-1.38
2017-11-28T03:19:28.191Z,-1.38
2017-11-28T03:21:59.824Z,-1.30
2017-11-28T03:27:40.731Z,-1.35
2017-11-28T03:30:19.256Z,-1.37
2017-11-28T03:32:47.130Z,-1.32
2017-11-28T03:35:14.993Z,-1.30
2017-11-28T03:37:42.763Z,-1.41
2017-11-28T03:40:10.558Z,-1.49
2017-11-28T03:42:38.402Z,-1.50
2017-11-28T03:48:04.499Z,-1.68
2017-11-28T03:50:32.356Z,-1.72
2017-11-28T03:53:00.193Z,-1.77
2017-11-28T03:55:28.091Z,-1.76
2017-11-28T03:57:55.875Z,-1.85
2017-11-28T04:00:26.449Z,-1.88
2017-11-28T04:02:54.316Z,-1.99
2017-11-28T04:05:22.147Z,-2.00
2017-11-28T04:07:49.962Z,-2.04
2017-11-28T04:10:17.765Z,-1.99
2017-11-28T04:12:45.594Z,-1.95
2017-11-28T04:15:13.462Z,-1.87
2017-11-28T04:17:41.361Z,-2.04
2017-11-28T04:20:09.222Z,-1.99
2017-11-28T04:22:37.023Z,-1.99
2017-11-28T04:25:04.836Z,-1.98
2017-11-28T04:27:32.688Z,-2.03
2017-11-28T04:30:00.526Z,-2.10
2017-11-28T04:32:28.381Z,-2.18
2017-11-28T04:34:56.270Z,-2.22
2017-11-28T04:37:24.080Z,-2.15
2017-11-28T04:39:51.960Z,-2.14
2017-11-28T04:42:19.781Z,-2.11
2017-11-28T04:44:47.606Z,-2.20
2017-11-28T04:47:15.424Z,-2.13
2017-11-28T04:49:43.268Z,-2.07
2017-11-28T04:52:11.150Z,-2.13
2017-11-28T04:54:39.041Z,-2.20
2017-11-28T04:57:06.889Z,-2.20
2017-11-28T04:59:34.633Z,-2.22
2017-11-28T05:02:02.445Z,-2.20
2017-11-28T05:04:30.270Z,-2.16
2017-11-28T05:06:58.290Z,-2.13
2017-11-28T05:09:26.168Z,-2.17
2017-11-28T05:11:53.970Z,-2.28
2017-11-28T05:14:21.845Z,-2.20
2017-11-28T05:16:49.634Z,-2.14
2017-11-28T05:19:17.418Z,-2.28
2017-11-28T05:21:45.256Z,-2.43
2017-11-28T05:24:13.606Z,-2.44
2017-11-28T05:26:41.439Z,-2.30
2017-11-28T05:29:10.267Z,-2.27
2017-11-28T05:31:38.112Z,-2.28
2017-11-28T05:34:06.036Z,-2.27
2017-11-28T05:36:33.965Z,-2.23
2017-11-28T05:39:01.794Z,-2.19
2017-11-28T05:41:29.605Z,-2.25
2017-11-28T05:43:57.493Z,-2.30
2017-11-28T05:46:25.340Z,-2.23
2017-11-28T05:48:53.239Z,-2.30
2017-11-28T05:51:21.066Z,-2.45
2017-11-28T05:53:48.829Z,-2.37
2017-11-28T05:56:16.681Z,-2.35
2017-11-28T05:58:44.505Z,-2.44
2017-11-28T06:01:13.274Z,-2.41
2017-11-28T06:03:41.022Z,-2.33
2017-11-28T06:06:08.825Z,-2.39
2017-11-28T06:08:36.644Z,-2.39
2017-11-28T06:11:04.459Z,-2.39
2017-11-28T06:13:32.346Z,-2.30
2017-11-28T06:16:00.181Z,-2.28
2017-11-28T06:18:28.193Z,-2.22
2017-11-28T06:20:56.056Z,-2.28
2017-11-28T06:23:24.588Z,-2.21
2017-11-28T06:25:52.617Z,-2.11
2017-11-28T06:28:20.574Z,-2.14
2017-11-28T06:30:48.415Z,-2.13
2017-11-28T06:33:16.279Z,-2.21
2017-11-28T06:35:44.120Z,-2.18
2017-11-28T06:38:11.944Z,-2.16
2017-11-28T06:40:39.751Z,-2.24
2017-11-28T06:43:07.864Z,-2.24
2017-11-28T06:45:36.558Z,-2.22
2017-11-28T06:48:04.396Z,-2.11
2017-11-28T06:50:32.266Z,-2.23
2017-11-28T06:53:00.149Z,-2.35
2017-11-28T06:55:28.052Z,-2.16
2017-11-28T06:57:55.873Z,-2.00
2017-11-28T07:00:23.762Z,-1.95
2017-11-28T07:02:51.537Z,-1.96
2017-11-28T07:05:19.416Z,-1.93
2017-11-28T07:07:47.280Z,-1.83
2017-11-28T07:10:15.051Z,-1.84
2017-11-28T07:12:42.877Z,-1.80
2017-11-28T07:15:10.678Z,-1.71
2017-11-28T07:17:39.714Z,-1.72
2017-11-28T07:20:07.670Z,-1.69
2017-11-28T07:22:35.463Z,-1.68
2017-11-28T07:25:04.979Z,-1.64
2017-11-28T07:27:32.811Z,-1.59
2017-11-28T07:30:00.681Z,-1.58
2017-11-28T07:32:28.641Z,-1.54
2017-11-28T07:34:56.700Z,-1.54
2017-11-28T07:37:24.573Z,-1.59
2017-11-28T07:39:52.425Z,-1.62
2017-11-28T07:42:20.217Z,-1.47
2017-11-28T07:44:47.977Z,-1.37
2017-11-28T07:47:15.773Z,-1.28
2017-11-28T07:49:43.497Z,-1.31
2017-11-28T07:52:11.382Z,-1.19
2017-11-28T07:54:39.222Z,-0.89
2017-11-28T07:57:06.987Z,-0.98
2017-11-28T07:59:34.820Z,-1.11
2017-11-28T08:02:02.682Z,-0.97
2017-11-28T08:04:30.531Z,-0.82
2017-11-28T08:06:58.358Z,-0.66
2017-11-28T08:09:26.181Z,-0.75
2017-11-28T08:11:54.052Z,-1.26
2017-11-28T08:14:21.880Z,-1.32
2017-11-28T08:16:49.710Z,-1.09
2017-11-28T08:19:17.517Z,-0.85
2017-11-28T08:21:45.325Z,-1.07
2017-11-28T08:24:13.258Z,-1.32
2017-11-28T08:26:41.077Z,-1.12
2017-11-28T08:29:08.915Z,-0.83
2017-11-28T08:31:36.787Z,-1.15
2017-11-28T08:34:04.734Z,-1.29
2017-11-28T08:36:32.575Z,-1.35
2017-11-28T08:39:00.479Z,-1.32
2017-11-28T08:41:28.320Z,-1.20
2017-11-28T08:43:56.137Z,-0.87
2017-11-28T08:46:24.000Z,-0.76
2017-11-28T08:48:51.924Z,-0.64
2017-11-28T08:51:19.709Z,-0.49
2017-11-28T08:53:47.522Z,-0.20
2017-11-28T08:56:15.317Z,-0.30
2017-11-28T08:58:43.270Z,-0.06
2017-11-28T09:01:11.171Z,0.26
2017-11-28T09:03:39.046Z,0.47
2017-11-28T09:06:06.851Z,0.79
2017-11-28T09:08:34.642Z,1.07
2017-11-28T09:11:02.424Z,1.43
2017-11-28T09:13:30.234Z,1.81
2017-11-28T09:15:57.971Z,1.84
2017-11-28T09:18:25.807Z,1.77
2017-11-28T09:20:53.574Z,1.87
2017-11-28T09:23:21.375Z,1.77
2017-11-28T09:25:49.173Z,1.76
2017-11-28T09:28:17.063Z,1.69
2017-11-28T09:30:44.815Z,2.11
2017-11-28T09:33:12.633Z,2.47
2017-11-28T09:35:40.469Z,2.42
2017-11-28T09:38:08.246Z,2.26
2017-11-28T09:40:36.056Z,2.14
2017-11-28T09:43:03.814Z,2.53
2017-11-28T09:45:31.593Z,2.77
2017-11-28T09:47:59.398Z,3.16
2017-11-28T09:50:27.168Z,3.32
2017-11-28T09:52:54.930Z,3.46
2017-11-28T09:55:22.784Z,3.50
2017-11-28T09:57:50.809Z,3.68
2017-11-28T10:00:19.020Z,4.13
2017-11-28T10:02:46.746Z,3.24
2017-11-28T10:05:14.460Z,2.96
2017-11-28T10:07:42.246Z,3.20
2017-11-28T10:10:10.001Z,3.20
2017-11-28T10:12:37.839Z,3.98
2017-11-28T10:15:05.627Z,4.45
2017-11-28T10:17:33.599Z,4.15
2017-11-28T10:20:01.416Z,4.41
2017-11-28T10:22:29.176Z,3.31
2017-11-28T10:24:56.955Z,3.00
2017-11-28T10:27:24.694Z,3.49
2017-11-28T10:29:52.462Z,3.46
2017-11-28T10:32:20.365Z,3.33
2017-11-28T10:34:48.472Z,3.45
2017-11-28T10:37:16.319Z,2.88
2017-11-28T10:39:44.111Z,4.14
2017-11-28T10:42:11.857Z,4.61
2017-11-28T10:47:06.694Z,4.34
2017-11-28T10:49:34.493Z,3.93
2017-11-28T10:52:02.258Z,4.03
2017-11-28T10:54:30.083Z,3.90
2017-11-28T10:56:57.933Z,3.94
2017-11-28T10:59:25.660Z,4.70
2017-11-28T11:01:53.444Z,5.09
2017-11-28T11:04:21.232Z,5.28
2017-11-28T11:06:49.018Z,5.47
2017-11-28T11:09:17.155Z,5.87
2017-11-28T11:11:44.879Z,6.09
2017-11-28T11:14:12.671Z,5.31
2017-11-28T11:16:40.555Z,4.38
2017-11-28T11:19:08.298Z,3.81
2017-11-28T11:21:36.093Z,3.77
2017-11-28T11:24:03.855Z,3.80
2017-11-28T11:26:31.668Z,3.64
2017-11-28T11:29:00.464Z,4.09
2017-11-28T11:31:28.197Z,4.94
2017-11-28T11:33:56.012Z,5.28
2017-11-28T11:36:23.792Z,4.70
2017-11-28T11:38:51.538Z,4.35
2017-11-28T11:41:19.319Z,4.23
2017-11-28T11:43:47.125Z,4.49
2017-11-28T11:46:14.855Z,4.93
2017-11-28T11:48:42.577Z,5.45
2017-11-28T11:51:10.519Z,4.44
2017-11-28T11:53:38.251Z,4.58
2017-11-28T11:56:06.014Z,5.09
2017-11-28T11:58:33.804Z,5.14
2017-11-28T12:01:01.600Z,4.98
2017-11-28T12:03:29.430Z,4.32
2017-11-28T12:05:57.210Z,4.02
2017-11-28T12:08:24.974Z,4.03
2017-11-28T12:10:52.783Z,3.79
2017-11-28T12:13:20.551Z,3.96
2017-11-28T12:15:48.336Z,4.07
2017-11-28T12:18:16.163Z,4.58
2017-11-28T12:20:43.964Z,4.50
2017-11-28T12:23:11.727Z,4.70
2017-11-28T12:25:39.475Z,4.98
2017-11-28T12:28:07.255Z,5.05
2017-11-28T12:30:35.099Z,4.94
2017-11-28T12:33:03.001Z,4.52
2017-11-28T12:35:30.967Z,5.02
2017-11-28T12:37:58.891Z,5.07
2017-11-28T12:40:26.835Z,5.10
2017-11-28T12:42:54.642Z,5.17
2017-11-28T12:45:22.429Z,4.64
2017-11-28T12:47:50.216Z,4.26
2017-11-28T12:50:18.071Z,4.50
2017-11-28T12:52:45.842Z,4.74
2017-11-28T12:55:13.656Z,4.28
2017-11-28T12:57:41.529Z,4.39
2017-11-28T13:00:09.423Z,4.26
2017-11-28T13:02:38.166Z,4.31
2017-11-28T13:05:05.910Z,4.57
2017-11-28T13:07:34.185Z,4.54
2017-11-28T13:10:01.995Z,4.34
2017-11-28T13:12:29.815Z,4.48
2017-11-28T13:14:57.656Z,4.59
2017-11-28T13:17:25.486Z,4.60
2017-11-28T13:19:55.065Z,4.58
2017-11-28T13:22:22.916Z,4.51
2017-11-28T13:24:50.712Z,4.36
2017-11-28T13:27:19.959Z,4.34
2017-11-28T13:29:47.747Z,4.36
2017-11-28T13:32:15.561Z,4.37
2017-11-28T13:34:43.385Z,4.27
2017-11-28T13:37:11.331Z,4.21
2017-11-28T13:39:39.460Z,4.25
2017-11-28T13:42:07.324Z,3.95
2017-11-28T13:44:35.078Z,3.79
2017-11-28T13:47:02.907Z,3.70
2017-11-28T13:49:30.657Z,3.51
2017-11-28T13:51:58.536Z,3.36
2017-11-28T13:54:26.441Z,3.51
2017-11-28T13:56:54.200Z,3.52
2017-11-28T13:59:22.026Z,3.53
2017-11-28T14:01:49.810Z,3.54
2017-11-28T14:04:17.661Z,3.48
2017-11-28T14:06:45.370Z,3.52
2017-11-28T14:09:13.507Z,3.63
2017-11-28T14:11:41.255Z,3.55
2017-11-28T14:14:09.072Z,3.57
2017-11-28T14:16:36.960Z,3.52
2017-11-28T14:19:04.735Z,3.50
2017-11-28T14:21:33.575Z,3.32
2017-11-28T14:24:06.908Z,3.08
2017-11-28T14:26:54.346Z,3.13
2017-11-28T14:29:22.229Z,3.07
2017-11-28T14:34:52.889Z,2.89
2017-11-28T14:37:20.737Z,2.82
2017-11-28T14:39:48.732Z,2.77
2017-11-28T14:45:20.125Z,2.75
2017-11-28T14:47:48.052Z,2.82
2017-11-28T14:50:15.975Z,2.77
2017-11-28T14:52:44.192Z,2.83
2017-11-28T14:55:17.635Z,2.85
2017-11-28T15:00:52.844Z,2.73
2017-11-28T15:03:41.280Z,2.72
2017-11-28T15:06:14.615Z,2.69
2017-11-28T15:08:48.040Z,2.68
2017-11-28T15:14:36.011Z,2.64
2017-11-28T15:17:04.651Z,2.52
2017-11-28T15:19:33.556Z,2.48
2017-11-28T15:25:05.677Z,2.48
2017-11-28T15:27:33.529Z,2.37
2017-11-28T15:30:01.882Z,2.30
2017-11-28T15:32:29.817Z,2.32
2017-11-28T15:34:57.582Z,2.37
2017-11-28T15:37:25.601Z,2.33
2017-11-28T15:39:53.509Z,2.29
2017-11-28T15:42:21.312Z,2.14
2017-11-28T15:44:49.154Z,2.23
2017-11-28T15:47:16.903Z,2.26
2017-11-28T15:49:45.080Z,2.33
2017-11-28T15:52:12.879Z,2.22
2017-11-28T15:54:40.654Z,2.18
2017-11-28T15:57:08.553Z,2.20
2017-11-28T15:59:36.379Z,2.13
2017-11-28T16:02:04.393Z,2.18
2017-11-28T16:04:32.160Z,2.15
2017-11-28T16:06:59.986Z,2.14
2017-11-28T16:09:27.874Z,2.18
2017-11-28T16:11:55.768Z,2.15
2017-11-28T16:14:23.700Z,2.14
2017-11-28T16:16:51.577Z,2.13
2017-11-28T16:19:19.377Z,2.12
2017-11-28T16:21:47.235Z,2.11
2017-11-28T16:24:15.003Z,2.06
2017-11-28T16:26:42.806Z,2.02
2017-11-28T16:29:11.497Z,2.04
2017-11-28T16:31:39.424Z,2.03
2017-11-28T16:34:07.270Z,2.05
2017-11-28T16:36:35.105Z,2.00
2017-11-28T16:39:02.862Z,1.95
2017-11-28T16:41:30.604Z,1.86
2017-11-28T16:44:00.020Z,1.86
2017-11-28T16:46:28.357Z,1.89
2017-11-28T16:48:56.146Z,1.82
2017-11-28T16:51:23.886Z,1.85
2017-11-28T16:53:51.703Z,1.88
2017-11-28T16:56:19.698Z,1.80
2017-11-28T16:58:47.481Z,1.78
2017-11-28T17:01:15.306Z,1.78
2017-11-28T17:03:43.132Z,1.78
2017-11-28T17:06:12.011Z,1.76
2017-11-28T17:08:40.042Z,1.76
2017-11-28T17:11:07.960Z,1.75
2017-11-28T17:13:35.963Z,1.53
2017-11-28T17:16:03.853Z,1.61
2017-11-28T17:18:31.728Z,1.69
2017-11-28T17:20:59.905Z,1.62
2017-11-28T17:23:27.688Z,1.51
2017-11-28T17:25:55.529Z,1.51
2017-11-28T17:28:23.304Z,1.51
2017-11-28T17:30:51.845Z,1.49
2017-11-28T17:33:19.778Z,1.35
2017-11-28T17:35:47.649Z,1.41
2017-11-28T17:38:16.258Z,1.41
2017-11-28T17:40:44.083Z,1.45
2017-11-28T17:43:12.085Z,1.45
2017-11-28T17:45:39.966Z,1.44
2017-11-28T17:48:07.853Z,1.42
2017-11-28T17:50:36.484Z,1.38
2017-11-28T17:53:04.659Z,1.36
2017-11-28T17:55:32.522Z,1.37
2017-11-28T17:58:00.437Z,1.39
2017-11-28T18:00:28.279Z,1.34
2017-11-28T18:02:56.187Z,1.36
2017-11-28T18:05:24.084Z,1.34
2017-11-28T18:07:51.959Z,1.35
2017-11-28T18:10:19.836Z,1.39
2017-11-28T18:12:49.005Z,1.25
2017-11-28T18:15:18.341Z,1.18
2017-11-28T18:17:46.247Z,1.23
2017-11-28T18:20:14.392Z,1.15
2017-11-28T18:22:43.097Z,1.22
2017-11-28T18:25:12.894Z,1.25
2017-11-28T18:27:40.737Z,1.26
2017-11-28T18:30:09.237Z,1.27
2017-11-28T18:32:38.121Z,1.31
2017-11-28T18:35:05.912Z,1.26
2017-11-28T18:37:33.718Z,1.25
2017-11-28T18:40:02.859Z,1.25
2017-11-28T18:42:32.381Z,1.21
2017-11-28T18:45:00.460Z,1.12
2017-11-28T18:47:28.435Z,1.06
2017-11-28T18:49:56.298Z,1.04
2017-11-28T18:52:24.322Z,1.09
2017-11-28T18:54:52.169Z,1.20
2017-11-28T18:57:20.032Z,1.22
2017-11-28T18:59:47.812Z,1.15
2017-11-28T19:02:15.571Z,1.15
2017-11-28T19:04:43.522Z,1.12
2017-11-28T19:07:11.739Z,0.88
2017-11-28T19:09:39.782Z,0.89
2017-11-28T19:12:07.793Z,0.91
2017-11-28T19:14:38.126Z,0.99
2017-11-28T19:17:06.308Z,1.07
2017-11-28T19:19:34.218Z,1.01
2017-11-28T19:22:03.680Z,0.99
2017-11-28T19:24:31.703Z,1.04
2017-11-28T19:27:02.569Z,0.96
2017-11-28T19:29:31.377Z,0.95
2017-11-28T19:31:59.705Z,0.93
2017-11-28T19:34:30.156Z,0.92
2017-11-28T19:36:59.744Z,0.88
2017-11-28T19:39:27.734Z,0.82
2017-11-28T19:41:57.049Z,0.80
2017-11-28T19:44:25.364Z,0.93
2017-11-28T19:46:53.457Z,0.88
2017-11-28T19:49:21.411Z,0.86
2017-11-28T19:51:50.116Z,0.81
2017-11-28T19:54:20.072Z,0.87
2017-11-28T19:56:48.052Z,0.90
2017-11-28T19:59:17.106Z,0.95
2017-11-28T20:01:44.908Z,0.86
2017-11-28T20:04:13.312Z,0.73
2017-11-28T20:06:41.429Z,0.77
2017-11-28T20:09:09.320Z,0.82
2017-11-28T20:11:37.243Z,0.78
2017-11-28T20:14:05.056Z,0.75
2017-11-28T20:16:33.293Z,0.83
2017-11-28T20:19:03.048Z,0.78
2017-11-28T20:21:31.231Z,0.77
2017-11-28T20:23:59.540Z,0.71
2017-11-28T20:26:28.622Z,0.67
2017-11-28T20:28:56.929Z,0.72
2017-11-28T20:31:24.770Z,0.72
2017-11-28T20:33:53.714Z,0.74
2017-11-28T20:36:21.572Z,0.79
2017-11-28T20:38:49.568Z,0.84
2017-11-28T20:41:17.654Z,0.91
2017-11-28T20:43:45.526Z,0.94
2017-11-28T20:46:14.180Z,0.88
2017-11-28T20:48:42.165Z,0.83
2017-11-28T20:51:10.016Z,0.88
2017-11-28T20:53:37.993Z,0.92
2017-11-28T20:56:05.798Z,0.89
2017-11-28T20:58:33.783Z,0.89
2017-11-28T21:01:01.624Z,0.86
2017-11-28T21:03:29.531Z,0.82
2017-11-28T21:05:57.387Z,0.85
2017-11-28T21:08:25.278Z,0.84
2017-11-28T21:10:53.092Z,0.88
2017-11-28T21:13:21.015Z,0.82
2017-11-28T21:15:48.758Z,0.77
2017-11-28T21:18:16.544Z,0.76
2017-11-28T21:20:44.321Z,0.74
2017-11-28T21:23:12.105Z,0.71
2017-11-28T21:25:40.157Z,0.68
2017-11-28T21:28:07.914Z,0.67
2017-11-28T21:30:35.661Z,0.68
2017-11-28T21:33:03.488Z,0.66
2017-11-28T21:35:31.235Z,0.55
2017-11-28T21:37:59.159Z,0.42
2017-11-28T21:40:26.926Z,0.51
2017-11-28T21:42:54.721Z,0.47
2017-11-28T21:45:22.478Z,0.47
2017-11-28T21:47:50.241Z,0.48
2017-11-28T21:50:18.043Z,0.48
2017-11-28T21:52:45.843Z,0.46
2017-11-28T21:55:13.670Z,0.49
2017-11-28T21:57:41.448Z,0.48
2017-11-28T22:00:09.256Z,0.49
2017-11-28T22:02:37.088Z,0.45
2017-11-28T22:05:05.024Z,0.40
2017-11-28T22:07:32.855Z,0.46
2017-11-28T22:10:00.632Z,0.33
2017-11-28T22:12:28.394Z,0.28
2017-11-28T22:14:56.205Z,0.31
2017-11-28T22:17:24.102Z,0.31
2017-11-28T22:19:51.837Z,0.37
2017-11-28T22:22:19.704Z,0.33
2017-11-28T22:24:47.508Z,0.41
2017-11-28T22:27:15.801Z,0.39
2017-11-28T22:29:43.578Z,0.28
2017-11-28T22:32:12.092Z,0.23
2017-11-28T22:34:39.889Z,0.28
2017-11-28T22:37:07.796Z,0.26
2017-11-28T22:39:35.609Z,0.36
2017-11-28T22:42:03.349Z,0.34
2017-11-28T22:44:31.250Z,0.28
2017-11-28T22:46:59.925Z,0.31
2017-11-28T22:49:27.748Z,0.31
2017-11-28T22:51:55.545Z,0.31
2017-11-28T22:54:23.282Z,0.31
2017-11-28T22:56:51.074Z,0.30
2017-11-28T22:59:19.139Z,0.22
2017-11-28T23:01:47.021Z,0.17
2017-11-28T23:04:14.831Z,0.12
2017-11-28T23:06:42.681Z,0.19
2017-11-28T23:09:10.507Z,0.24
2017-11-28T23:11:38.362Z,0.18
2017-11-28T23:14:06.165Z,0.31
2017-11-28T23:16:34.147Z,0.33
2017-11-28T23:19:01.921Z,0.42
2017-11-28T23:21:29.743Z,0.37
2017-11-28T23:23:57.506Z,0.33
2017-11-28T23:26:25.317Z,0.41
2017-11-28T23:28:53.097Z,0.44
2017-11-28T23:31:20.906Z,0.48
2017-11-28T23:33:48.648Z,0.47
2017-11-28T23:36:16.398Z,0.37
2017-11-28T23:38:44.237Z,0.27
2017-11-28T23:41:11.946Z,0.17
2017-11-28T23:43:39.740Z,0.13
2017-11-28T23:46:07.587Z,0.22
2017-11-28T23:48:35.399Z,0.15
2017-11-28T23:51:03.129Z,0.23
2017-11-28T23:53:30.947Z,0.20
2017-11-28T23:55:58.695Z,0.21
2017-11-28T23:58:26.482Z,0.25
